Time;durP1;ratioP1;P1;durP2;ratioP2;P2;SDS_P1;SDS_P2;PMS_P1;PMS_P2;Temp;Humidity;BMP_temperature;BMP_pressure;BME280_temperature;BME280_humidity;BME280_pressure;Samples;Min_cycle;Max_cycle;Signal;HPM_P1;HPM_P2
2023/03/03 00:00:00;;;;;;;32.40;29.20;;;;;;;;;;5128191;28;20205;-85
2023/03/03 00:02:27;;;;;;;33.58;30.30;;;;;;;;;;5126649;28;20256;-85
2023/03/03 00:04:54;;;;;;;33.10;29.90;;;;;;;;;;5127430;28;20674;-85
2023/03/03 00:07:22;;;;;;;32.15;28.95;;;;;;;;;;5127400;28;20255;-85
2023/03/03 00:09:49;;;;;;;31.33;28.45;;;;;;;;;;5127916;28;20205;-85
2023/03/03 00:12:21;;;;;;;31.50;28.70;;;;;;;;;;5126238;28;20202;-85
2023/03/03 00:14:49;;;;;;;33.53;30.17;;;;;;;;;;5126932;28;20214;-85
2023/03/03 00:17:20;;;;;;;31.13;28.23;;;;;;;;;;5126715;28;20202;-85
2023/03/03 00:19:48;;;;;;;31.85;29.05;;;;;;;;;;5126558;28;20251;-85
2023/03/03 00:22:17;;;;;;;33.13;29.83;;;;;;;;;;5126514;28;20247;-85
2023/03/03 00:24:44;;;;;;;33.50;29.70;;;;;;;;;;5125761;28;20201;-85
2023/03/03 00:27:17;;;;;;;33.65;30.25;;;;;;;;;;5125939;28;20226;-85
2023/03/03 00:29:47;;;;;;;30.20;27.60;;;;;;;;;;5127459;28;20218;-85
2023/03/03 00:32:20;;;;;;;33.55;30.35;;;;;;;;;;5125589;28;20193;-85
2023/03/03 00:34:49;;;;;;;31.73;28.77;;;;;;;;;;5125966;28;20193;-85
2023/03/03 00:37:30;;;;;;;32.17;29.13;;;;;;;;;;5126143;28;20217;-85
2023/03/03 00:40:00;;;;;;;32.65;29.58;;;;;;;;;;5127050;28;20198;-85
2023/03/03 00:42:27;;;;;;;31.58;28.52;;;;;;;;;;5126519;28;20225;-85
2023/03/03 00:44:57;;;;;;;31.75;28.85;;;;;;;;;;5126286;28;20665;-85
2023/03/03 00:47:30;;;;;;;32.38;29.13;;;;;;;;;;5127390;28;20213;-85
2023/03/03 00:50:08;;;;;;;34.72;31.20;;;;;;;;;;5127735;28;20205;-85
2023/03/03 00:52:35;;;;;;;31.58;28.63;;;;;;;;;;5125826;28;20185;-85
2023/03/03 00:55:03;;;;;;;31.25;28.38;;;;;;;;;;5125765;28;20201;-85
2023/03/03 00:57:30;;;;;;;31.95;28.73;;;;;;;;;;5126524;28;20232;-86
2023/03/03 00:59:57;;;;;;;32.85;29.63;;;;;;;;;;5127226;28;20608;-85
2023/03/03 01:02:24;;;;;;;34.95;31.25;;;;;;;;;;5126615;28;20225;-85
2023/03/03 01:04:55;;;;;;;31.10;28.10;;;;;;;;;;5127067;28;20198;-85
2023/03/03 01:07:22;;;;;;;32.90;29.80;;;;;;;;;;5126193;28;20575;-86
2023/03/03 01:09:49;;;;;;;31.38;28.63;;;;;;;;;;5126981;28;20251;-86
2023/03/03 01:12:16;;;;;;;31.20;28.40;;;;;;;;;;5126012;28;20201;-85
2023/03/03 01:14:44;;;;;;;30.50;27.58;;;;;;;;;;5126991;28;20270;-84
2023/03/03 01:17:11;;;;;;;29.98;27.27;;;;;;;;;;5127561;28;20225;-85
2023/03/03 01:19:38;;;;;;;31.75;28.70;;;;;;;;;;5126597;28;20202;-85
2023/03/03 01:22:06;;;;;;;32.33;29.42;;;;;;;;;;5124577;28;20270;-85
2023/03/03 01:24:33;;;;;;;29.58;27.17;;;;;;;;;;5123833;28;20212;-86
2023/03/03 01:27:00;;;;;;;29.45;26.85;;;;;;;;;;5125132;28;20229;-85
2023/03/03 01:29:27;;;;;;;30.67;27.77;;;;;;;;;;5124521;28;20209;-85
2023/03/03 01:31:55;;;;;;;32.30;29.17;;;;;;;;;;5124079;28;20222;-85
2023/03/03 01:34:22;;;;;;;28.60;26.20;;;;;;;;;;5124503;28;20359;-85
2023/03/03 01:36:49;;;;;;;29.98;27.40;;;;;;;;;;5123049;28;20354;-85
2023/03/03 01:39:17;;;;;;;30.20;27.50;;;;;;;;;;5123957;28;20206;-85
2023/03/03 01:41:44;;;;;;;29.20;26.52;;;;;;;;;;5123485;28;20270;-85
2023/03/03 01:44:14;;;;;;;30.58;27.75;;;;;;;;;;5124168;28;20236;-85
2023/03/03 01:46:47;;;;;;;30.25;27.25;;;;;;;;;;5123387;28;20251;-85
2023/03/03 01:49:16;;;;;;;28.70;26.10;;;;;;;;;;5123757;28;20204;-85
2023/03/03 01:51:46;;;;;;;29.85;27.08;;;;;;;;;;5123072;28;20204;-85
2023/03/03 01:54:15;;;;;;;29.02;26.52;;;;;;;;;;5123479;28;20251;-85
2023/03/03 01:56:44;;;;;;;30.02;26.95;;;;;;;;;;5122786;28;20217;-85
2023/03/03 01:59:14;;;;;;;30.70;28.00;;;;;;;;;;5124110;28;20194;-85
2023/03/03 02:01:41;;;;;;;29.92;27.15;;;;;;;;;;5122636;28;20198;-85
2023/03/03 02:04:08;;;;;;;31.13;27.95;;;;;;;;;;5123669;28;20231;-85
2023/03/03 02:06:37;;;;;;;28.35;26.00;;;;;;;;;;5122754;28;20229;-85
2023/03/03 02:09:06;;;;;;;31.63;28.65;;;;;;;;;;5123916;28;20209;-85
2023/03/03 02:11:35;;;;;;;30.00;27.25;;;;;;;;;;5122795;28;20217;-85
2023/03/03 02:14:03;;;;;;;29.67;26.98;;;;;;;;;;5123440;28;20210;-85
2023/03/03 02:16:30;;;;;;;29.55;26.90;;;;;;;;;;5122872;28;20229;-85
2023/03/03 02:18:58;;;;;;;32.03;29.17;;;;;;;;;;5123161;28;20231;-85
2023/03/03 02:21:26;;;;;;;30.83;28.02;;;;;;;;;;5122708;28;20198;-85
2023/03/03 02:23:56;;;;;;;29.40;26.70;;;;;;;;;;5123052;28;20222;-85
2023/03/03 02:26:25;;;;;;;30.35;27.75;;;;;;;;;;5122600;28;20365;-85
2023/03/03 02:28:52;;;;;;;31.15;28.15;;;;;;;;;;5123503;28;20205;-85
2023/03/03 02:31:20;;;;;;;31.63;28.70;;;;;;;;;;5122663;28;20205;-86
2023/03/03 02:33:49;;;;;;;31.90;28.83;;;;;;;;;;5122982;28;20218;-85
2023/03/03 02:36:17;;;;;;;32.13;28.83;;;;;;;;;;5122367;28;20224;-85
2023/03/03 02:38:46;;;;;;;31.90;28.50;;;;;;;;;;5123057;28;20209;-85
2023/03/03 02:41:17;;;;;;;29.77;27.35;;;;;;;;;;5122224;28;20246;-86
2023/03/03 02:43:47;;;;;;;32.00;28.75;;;;;;;;;;5122985;28;20212;-85
2023/03/03 02:46:14;;;;;;;29.83;27.05;;;;;;;;;;5122068;28;20226;-85
2023/03/03 02:48:41;;;;;;;29.52;26.73;;;;;;;;;;5122737;28;20182;-85
2023/03/03 02:51:08;;;;;;;31.42;28.40;;;;;;;;;;5122310;28;20209;-86
2023/03/03 02:53:35;;;;;;;31.88;28.90;;;;;;;;;;5122557;28;20205;-85
2023/03/03 02:56:03;;;;;;;31.38;28.40;;;;;;;;;;5122558;28;20225;-85
2023/03/03 02:58:30;;;;;;;32.80;29.60;;;;;;;;;;5121463;28;20205;-85
2023/03/03 03:00:58;;;;;;;30.98;28.08;;;;;;;;;;5122236;28;20210;-85
2023/03/03 03:03:25;;;;;;;32.55;29.27;;;;;;;;;;5122194;28;20251;-85
2023/03/03 03:05:52;;;;;;;31.80;28.60;;;;;;;;;;5122173;28;20247;-84
2023/03/03 03:08:19;;;;;;;32.75;29.25;;;;;;;;;;5121747;28;20212;-85
2023/03/03 03:10:46;;;;;;;33.55;30.30;;;;;;;;;;5122687;28;20201;-85
2023/03/03 03:13:13;;;;;;;33.75;30.55;;;;;;;;;;5122776;28;20202;-85
2023/03/03 03:15:40;;;;;;;33.10;29.75;;;;;;;;;;5134043;28;20766;-86
2023/03/03 03:18:09;;;;;;;32.58;29.40;;;;;;;;;;5134278;28;20201;-84
2023/03/03 03:20:36;;;;;;;33.30;29.88;;;;;;;;;;5128545;28;20202;-85
2023/03/03 03:23:03;;;;;;;33.38;29.77;;;;;;;;;;5123493;28;20696;-85
2023/03/03 03:25:30;;;;;;;34.05;30.80;;;;;;;;;;5124523;28;20225;-85
2023/03/03 03:27:57;;;;;;;36.22;30.65;;;;;;;;;;5124220;28;20253;-85
2023/03/03 03:30:24;;;;;;;35.60;31.80;;;;;;;;;;5124560;28;20213;-85
2023/03/03 03:32:51;;;;;;;35.90;31.98;;;;;;;;;;5122791;28;20200;-85
2023/03/03 03:35:20;;;;;;;35.45;30.98;;;;;;;;;;5121636;28;20246;-85
2023/03/03 03:37:47;;;;;;;40.88;33.20;;;;;;;;;;5122974;28;20231;-85
2023/03/03 03:40:14;;;;;;;36.30;31.70;;;;;;;;;;5122027;28;20206;-85
2023/03/03 03:42:41;;;;;;;40.53;34.13;;;;;;;;;;5122184;28;20225;-85
2023/03/03 03:45:14;;;;;;;36.92;32.15;;;;;;;;;;5121848;28;20206;-86
2023/03/03 03:47:41;;;;;;;35.80;31.83;;;;;;;;;;5121605;28;20234;-85
2023/03/03 03:50:08;;;;;;;36.25;32.17;;;;;;;;;;5121917;28;20262;-85
2023/03/03 03:52:37;;;;;;;37.17;31.17;;;;;;;;;;5120781;28;20231;-85
2023/03/03 03:55:04;;;;;;;44.55;33.60;;;;;;;;;;5122488;28;20205;-85
2023/03/03 03:57:31;;;;;;;36.05;30.83;;;;;;;;;;5121317;28;20213;-85
2023/03/03 03:59:58;;;;;;;42.67;34.30;;;;;;;;;;5122208;28;20202;-85
2023/03/03 04:02:25;;;;;;;41.10;33.33;;;;;;;;;;5121921;28;20610;-85
2023/03/03 04:04:52;;;;;;;46.13;32.85;;;;;;;;;;5121868;28;20209;-85
2023/03/03 04:07:19;;;;;;;41.50;33.78;;;;;;;;;;5121941;28;20206;-86
2023/03/03 04:09:47;;;;;;;38.47;32.22;;;;;;;;;;5121892;28;20744;-85
2023/03/03 04:12:14;;;;;;;40.13;32.45;;;;;;;;;;5125124;28;20208;-86
2023/03/03 04:14:41;;;;;;;42.83;31.58;;;;;;;;;;5125314;28;20224;-85
2023/03/03 04:17:08;;;;;;;36.33;29.42;;;;;;;;;;5125051;28;20749;-85
2023/03/03 04:19:35;;;;;;;42.63;31.10;;;;;;;;;;5124635;28;20206;-85
2023/03/03 04:22:02;;;;;;;37.15;30.05;;;;;;;;;;5124372;28;20653;-86
2023/03/03 04:24:29;;;;;;;36.67;31.52;;;;;;;;;;5124604;28;20231;-85
2023/03/03 04:26:57;;;;;;;38.45;33.20;;;;;;;;;;5124820;28;20229;-85
2023/03/03 04:29:24;;;;;;;35.10;29.80;;;;;;;;;;5122634;28;20213;-85
2023/03/03 04:31:51;;;;;;;36.05;30.95;;;;;;;;;;5124944;28;20205;-85
2023/03/03 04:34:18;;;;;;;37.65;29.90;;;;;;;;;;5125185;28;20205;-85
2023/03/03 04:36:45;;;;;;;41.80;32.83;;;;;;;;;;5125257;28;20323;-85
2023/03/03 04:39:12;;;;;;;38.45;33.75;;;;;;;;;;5125382;28;20291;-85
2023/03/03 04:41:39;;;;;;;37.70;30.58;;;;;;;;;;5123647;28;20242;-85
2023/03/03 04:44:08;;;;;;;43.50;34.97;;;;;;;;;;5125426;28;20224;-85
2023/03/03 04:46:35;;;;;;;46.97;33.97;;;;;;;;;;5124172;28;20229;-85
2023/03/03 04:49:02;;;;;;;40.30;33.55;;;;;;;;;;5125197;28;20281;-85
2023/03/03 04:51:29;;;;;;;44.75;34.38;;;;;;;;;;5124128;28;20628;-85
2023/03/03 04:53:56;;;;;;;35.83;29.92;;;;;;;;;;5125276;28;20198;-85
2023/03/03 04:56:23;;;;;;;48.63;34.03;;;;;;;;;;5124221;28;20235;-85
2023/03/03 04:58:56;;;;;;;45.65;32.13;;;;;;;;;;5123520;28;20657;-85
2023/03/03 05:01:24;;;;;;;43.33;33.38;;;;;;;;;;5124084;28;20189;-85
2023/03/03 05:03:51;;;;;;;47.60;36.90;;;;;;;;;;5124454;28;20217;-85
2023/03/03 05:06:18;;;;;;;45.95;32.58;;;;;;;;;;5124030;28;20221;-86
2023/03/03 05:08:46;;;;;;;47.22;34.75;;;;;;;;;;5124733;28;20209;-85
2023/03/03 05:11:13;;;;;;;48.33;33.65;;;;;;;;;;5124035;28;20194;-86
2023/03/03 05:13:40;;;;;;;55.00;36.10;;;;;;;;;;5123921;28;20274;-85
2023/03/03 05:16:08;;;;;;;43.70;31.55;;;;;;;;;;5123675;28;20221;-85
2023/03/03 05:18:36;;;;;;;49.80;34.50;;;;;;;;;;5123856;28;20185;-85
2023/03/03 05:21:03;;;;;;;44.50;31.23;;;;;;;;;;5123789;28;20209;-85
2023/03/03 05:23:30;;;;;;;46.00;32.97;;;;;;;;;;5123902;28;20229;-85
2023/03/03 05:25:58;;;;;;;52.60;33.50;;;;;;;;;;5124045;28;20249;-84
2023/03/03 05:28:25;;;;;;;52.75;32.70;;;;;;;;;;5123803;28;20719;-85
2023/03/03 05:30:52;;;;;;;39.35;31.70;;;;;;;;;;5124089;28;20204;-85
2023/03/03 05:33:19;;;;;;;48.83;33.35;;;;;;;;;;5123539;28;20207;-85
2023/03/03 05:35:48;;;;;;;46.85;35.50;;;;;;;;;;5123248;28;20222;-85
2023/03/03 05:38:15;;;;;;;51.50;33.63;;;;;;;;;;5121566;28;20243;-86
2023/03/03 05:40:42;;;;;;;48.67;34.90;;;;;;;;;;5122920;28;20200;-85
2023/03/03 05:43:09;;;;;;;51.38;34.63;;;;;;;;;;5122199;28;20218;-85
2023/03/03 05:45:36;;;;;;;60.70;37.15;;;;;;;;;;5123358;28;20245;-85
2023/03/03 05:48:03;;;;;;;51.95;33.30;;;;;;;;;;5123366;28;20194;-85
2023/03/03 05:50:31;;;;;;;54.28;35.13;;;;;;;;;;5122936;28;20262;-85
2023/03/03 05:52:59;;;;;;;56.70;34.60;;;;;;;;;;5123297;28;20219;-85
2023/03/03 05:55:27;;;;;;;59.90;32.28;;;;;;;;;;5123868;28;20716;-85
2023/03/03 05:57:54;;;;;;;61.72;34.90;;;;;;;;;;5123588;28;20196;-85
2023/03/03 06:00:21;;;;;;;57.20;35.22;;;;;;;;;;5120124;28;20234;-89
2023/03/03 06:02:48;;;;;;;70.60;37.47;;;;;;;;;;5120603;28;20201;-84
2023/03/03 06:05:15;;;;;;;54.17;33.95;;;;;;;;;;5123592;27;20217;-84
2023/03/03 06:07:42;;;;;;;53.67;35.72;;;;;;;;;;5142542;27;20220;-84
2023/03/03 06:10:11;;;;;;;55.65;35.40;;;;;;;;;;5141920;27;20647;-83
2023/03/03 06:12:40;;;;;;;56.85;35.55;;;;;;;;;;5140857;27;20262;-84
2023/03/03 06:15:07;;;;;;;56.30;34.40;;;;;;;;;;5141718;27;20221;-83
2023/03/03 06:17:34;;;;;;;57.80;35.47;;;;;;;;;;5142296;27;20686;-83
2023/03/03 06:20:02;;;;;;;58.05;36.78;;;;;;;;;;5143043;27;20208;-84
2023/03/03 06:22:29;;;;;;;55.10;35.95;;;;;;;;;;5141170;27;20204;-82
2023/03/03 06:24:56;;;;;;;46.50;33.10;;;;;;;;;;5141837;27;20212;-84
2023/03/03 06:27:24;;;;;;;48.38;32.50;;;;;;;;;;5141668;27;20533;-82
2023/03/03 06:29:51;;;;;;;57.40;34.70;;;;;;;;;;5141414;27;20613;-83
2023/03/03 06:32:18;;;;;;;37.90;28.52;;;;;;;;;;5140705;27;20259;-84
2023/03/03 06:34:45;;;;;;;53.88;35.85;;;;;;;;;;5140602;27;20212;-83
2023/03/03 06:37:12;;;;;;;42.78;32.58;;;;;;;;;;5141479;27;20217;-84
2023/03/03 06:39:39;;;;;;;55.53;33.65;;;;;;;;;;5142051;27;20200;-84
2023/03/03 06:42:08;;;;;;;55.40;36.40;;;;;;;;;;5140417;27;20196;-82
2023/03/03 06:44:36;;;;;;;48.70;34.65;;;;;;;;;;5140475;27;20220;-81
2023/03/03 06:47:04;;;;;;;53.83;35.78;;;;;;;;;;5140859;27;20228;-81
2023/03/03 06:49:32;;;;;;;57.60;37.53;;;;;;;;;;5141523;27;20208;-83
2023/03/03 06:52:00;;;;;;;57.50;35.92;;;;;;;;;;5140054;27;20205;-83
2023/03/03 06:54:28;;;;;;;57.38;35.88;;;;;;;;;;5142014;27;20234;-83
2023/03/03 06:56:58;;;;;;;60.58;36.30;;;;;;;;;;5139966;27;20272;-81
2023/03/03 06:59:27;;;;;;;48.47;35.95;;;;;;;;;;5141303;27;20253;-81
2023/03/03 07:01:55;;;;;;;55.08;34.97;;;;;;;;;;5140831;27;20253;-82
2023/03/03 07:04:27;;;;;;;50.88;35.78;;;;;;;;;;5142191;27;20245;-82
2023/03/03 07:06:54;;;;;;;53.00;35.50;;;;;;;;;;5140307;27;20242;-81
2023/03/03 07:09:23;;;;;;;49.45;33.90;;;;;;;;;;5141209;27;20215;-81
2023/03/03 07:11:50;;;;;;;43.65;31.88;;;;;;;;;;5141029;27;20260;-82
2023/03/03 07:14:18;;;;;;;45.30;31.55;;;;;;;;;;5141960;27;20211;-81
2023/03/03 07:16:45;;;;;;;47.88;33.47;;;;;;;;;;5139669;27;20224;-82
2023/03/03 07:19:18;;;;;;;43.10;32.20;;;;;;;;;;5142254;27;20729;-81
2023/03/03 07:21:45;;;;;;;49.83;33.15;;;;;;;;;;5143144;27;20218;-82
2023/03/03 07:24:19;;;;;;;53.10;34.33;;;;;;;;;;5143010;28;20225;-81
2023/03/03 07:26:46;;;;;;;48.38;31.90;;;;;;;;;;5142401;28;20277;-82
2023/03/03 07:29:18;;;;;;;52.70;33.53;;;;;;;;;;5143350;28;20201;-82
2023/03/03 07:31:46;;;;;;;52.05;35.05;;;;;;;;;;5149970;28;20208;-82
2023/03/03 07:34:17;;;;;;;54.15;34.45;;;;;;;;;;5156947;28;20222;-82
2023/03/03 07:36:44;;;;;;;59.63;35.20;;;;;;;;;;5156460;27;20243;-81
2023/03/03 07:39:26;;;;;;;50.47;34.47;;;;;;;;;;5145099;28;20234;-82
2023/03/03 07:41:53;;;;;;;59.65;36.00;;;;;;;;;;5143745;28;20207;-82
2023/03/03 07:44:23;;;;;;;54.88;36.10;;;;;;;;;;5145495;27;20224;-86
2023/03/03 07:46:51;;;;;;;66.43;35.65;;;;;;;;;;5139253;27;20285;-84
2023/03/03 07:49:24;;;;;;;56.08;35.90;;;;;;;;;;5145806;27;20204;-84
2023/03/03 07:51:54;;;;;;;51.78;34.45;;;;;;;;;;5145257;27;20193;-83
2023/03/03 07:54:31;;;;;;;53.03;35.08;;;;;;;;;;5144709;27;20201;-84
2023/03/03 07:56:59;;;;;;;51.10;36.25;;;;;;;;;;5143570;27;20220;-84
2023/03/03 07:59:26;;;;;;;42.20;30.70;;;;;;;;;;5145355;27;20204;-84
2023/03/03 08:01:54;;;;;;;52.67;33.85;;;;;;;;;;5144131;27;20248;-84
2023/03/03 08:04:23;;;;;;;50.95;33.90;;;;;;;;;;5146038;27;20586;-82
2023/03/03 08:06:52;;;;;;;44.78;31.92;;;;;;;;;;5144693;27;20231;-81
2023/03/03 08:09:27;;;;;;;53.90;34.88;;;;;;;;;;5145660;27;20219;-80
2023/03/03 08:11:56;;;;;;;48.03;33.28;;;;;;;;;;5145908;27;20180;-77
2023/03/03 08:14:26;;;;;;;42.40;31.45;;;;;;;;;;5142397;27;20201;-78
2023/03/03 08:16:53;;;;;;;47.90;33.00;;;;;;;;;;5143833;27;20220;-80
2023/03/03 08:19:20;;;;;;;45.50;32.78;;;;;;;;;;5145928;27;20251;-79
2023/03/03 08:21:48;;;;;;;55.00;35.70;;;;;;;;;;5145544;27;20233;-84
2023/03/03 08:24:16;;;;;;;54.30;33.63;;;;;;;;;;5146485;27;20222;-85
2023/03/03 08:26:43;;;;;;;44.33;30.58;;;;;;;;;;5146298;27;20232;-84
2023/03/03 08:29:11;;;;;;;43.30;30.58;;;;;;;;;;5146940;27;20205;-83
2023/03/03 08:31:38;;;;;;;51.53;34.25;;;;;;;;;;5146062;27;20289;-82
2023/03/03 08:34:05;;;;;;;54.58;33.90;;;;;;;;;;5144204;27;20204;-83
2023/03/03 08:36:32;;;;;;;54.53;33.25;;;;;;;;;;5144262;27;20217;-84
2023/03/03 08:39:00;;;;;;;49.00;33.67;;;;;;;;;;5144641;27;20205;-83
2023/03/03 08:41:27;;;;;;;52.28;34.03;;;;;;;;;;5143806;27;20745;-83
2023/03/03 08:43:54;;;;;;;52.50;34.05;;;;;;;;;;5144402;27;20200;-83
2023/03/03 08:46:21;;;;;;;50.10;34.80;;;;;;;;;;5143864;27;20635;-85
2023/03/03 08:48:48;;;;;;;44.33;32.53;;;;;;;;;;5144601;27;20201;-85
2023/03/03 08:51:15;;;;;;;44.25;31.58;;;;;;;;;;5144170;27;20216;-82
2023/03/03 08:53:42;;;;;;;51.25;33.28;;;;;;;;;;5145130;27;20208;-83
2023/03/03 08:56:10;;;;;;;42.22;30.85;;;;;;;;;;5144584;27;20250;-84
2023/03/03 08:58:38;;;;;;;37.63;30.10;;;;;;;;;;5145351;27;20744;-83
2023/03/03 09:01:05;;;;;;;46.03;31.17;;;;;;;;;;5145377;27;20236;-80
2023/03/03 09:03:32;;;;;;;38.90;29.50;;;;;;;;;;5145145;27;20197;-81
2023/03/03 09:05:59;;;;;;;39.90;30.42;;;;;;;;;;5146304;27;20229;-81
2023/03/03 09:08:26;;;;;;;39.67;29.17;;;;;;;;;;5145091;27;20178;-83
2023/03/03 09:10:53;;;;;;;34.05;29.50;;;;;;;;;;5145295;27;20230;-83
2023/03/03 09:13:22;;;;;;;39.60;30.58;;;;;;;;;;5142933;27;20201;-83
2023/03/03 09:15:49;;;;;;;38.47;29.85;;;;;;;;;;5143286;27;20229;-84
2023/03/03 09:18:17;;;;;;;39.22;29.10;;;;;;;;;;5143645;27;20714;-85
2023/03/03 09:20:45;;;;;;;37.78;28.80;;;;;;;;;;5143096;27;20681;-83
2023/03/03 09:23:33;;;;;;;42.53;31.92;;;;;;;;;;5144228;27;20281;-83
2023/03/03 09:26:14;;;;;;;42.13;32.20;;;;;;;;;;5143486;27;20229;-83
2023/03/03 09:28:42;;;;;;;40.70;31.85;;;;;;;;;;5144577;27;20190;-83
2023/03/03 09:31:21;;;;;;;38.67;32.03;;;;;;;;;;5144108;27;20705;-84
2023/03/03 09:33:50;;;;;;;46.55;32.10;;;;;;;;;;5138129;27;20218;-83
2023/03/03 09:36:21;;;;;;;35.42;29.70;;;;;;;;;;5142711;27;20217;-83
2023/03/03 09:38:49;;;;;;;41.55;29.85;;;;;;;;;;5142893;27;20249;-82
2023/03/03 09:41:25;;;;;;;39.70;29.40;;;;;;;;;;5142201;27;20208;-82
2023/03/03 09:44:00;;;;;;;39.60;29.40;;;;;;;;;;5142748;27;20189;-82
2023/03/03 09:46:31;;;;;;;44.53;31.70;;;;;;;;;;5141653;27;20229;-83
2023/03/03 09:49:03;;;;;;;37.60;29.35;;;;;;;;;;5143560;27;20241;-84
2023/03/03 09:51:36;;;;;;;36.72;28.85;;;;;;;;;;5145230;27;20173;-84
2023/03/03 09:54:16;;;;;;;36.85;29.50;;;;;;;;;;5143928;27;20257;-83
2023/03/03 09:56:44;;;;;;;33.42;27.90;;;;;;;;;;5144974;27;20231;-84
2023/03/03 09:59:22;;;;;;;37.92;29.05;;;;;;;;;;5144679;27;20205;-86
2023/03/03 10:01:52;;;;;;;37.42;29.23;;;;;;;;;;5142836;27;20701;-85
2023/03/03 10:04:38;;;;;;;36.78;29.17;;;;;;;;;;5140684;27;20217;-85
2023/03/03 10:07:11;;;;;;;35.78;29.10;;;;;;;;;;5142306;27;20627;-88
2023/03/03 10:09:43;;;;;;;33.88;29.85;;;;;;;;;;5143725;27;20212;-86
2023/03/03 10:12:12;;;;;;;33.50;28.55;;;;;;;;;;5139177;27;20189;-89
2023/03/03 10:14:54;;;;;;;34.38;29.83;;;;;;;;;;5140219;27;20248;-87
2023/03/03 10:17:28;;;;;;;36.10;29.88;;;;;;;;;;5138786;27;20205;-86
2023/03/03 10:20:02;;;;;;;35.10;30.95;;;;;;;;;;5143994;27;20189;-83
2023/03/03 10:22:33;;;;;;;30.42;26.83;;;;;;;;;;5141537;27;20201;-85
2023/03/03 10:25:04;;;;;;;34.90;30.42;;;;;;;;;;5142157;27;20277;-85
2023/03/03 10:27:41;;;;;;;33.10;29.20;;;;;;;;;;5141473;27;20249;-86
2023/03/03 10:30:11;;;;;;;35.67;28.90;;;;;;;;;;5140893;27;20657;-83
2023/03/03 10:32:47;;;;;;;33.30;28.65;;;;;;;;;;5134932;27;20531;-87
2023/03/03 10:35:38;;;;;;;30.08;26.83;;;;;;;;;;5138149;27;20643;-87
2023/03/03 10:38:26;;;;;;;32.25;28.25;;;;;;;;;;5128111;27;20250;-86
2023/03/03 10:40:56;;;;;;;35.28;27.70;;;;;;;;;;5135688;27;20209;-86
2023/03/03 10:43:32;;;;;;;35.85;30.25;;;;;;;;;;5138602;27;20226;-86
2023/03/03 10:46:07;;;;;;;36.78;29.45;;;;;;;;;;5141630;27;20225;-86
2023/03/03 10:48:46;;;;;;;31.88;28.63;;;;;;;;;;5141282;27;20578;-86
2023/03/03 10:51:19;;;;;;;36.03;29.50;;;;;;;;;;5141533;27;20185;-87
2023/03/03 10:53:50;;;;;;;37.38;29.58;;;;;;;;;;5141635;27;20189;-86
2023/03/03 10:56:27;;;;;;;36.60;30.63;;;;;;;;;;5141349;27;20221;-86
2023/03/03 10:58:59;;;;;;;36.22;30.52;;;;;;;;;;5141502;27;20197;-85
2023/03/03 11:01:30;;;;;;;35.30;29.52;;;;;;;;;;5138942;27;20236;-88
2023/03/03 11:04:13;;;;;;;33.45;29.52;;;;;;;;;;5139039;27;20297;-86
2023/03/03 11:06:44;;;;;;;34.53;29.23;;;;;;;;;;5138737;27;20225;-86
2023/03/03 11:09:16;;;;;;;37.75;31.73;;;;;;;;;;5140919;27;20238;-82
2023/03/03 11:11:47;;;;;;;34.25;30.50;;;;;;;;;;5140822;27;20186;-82
2023/03/03 11:14:17;;;;;;;36.37;30.13;;;;;;;;;;5144730;27;20231;-83
2023/03/03 11:16:48;;;;;;;42.83;32.63;;;;;;;;;;5142995;27;20433;-81
2023/03/03 11:19:33;;;;;;;41.33;34.20;;;;;;;;;;5140197;27;20196;-83
2023/03/03 11:22:07;;;;;;;41.25;33.15;;;;;;;;;;5141484;27;20492;-86
2023/03/03 11:24:40;;;;;;;42.90;34.95;;;;;;;;;;5142981;27;20184;-83
2023/03/03 11:27:15;;;;;;;44.33;33.40;;;;;;;;;;5142862;27;20228;-84
2023/03/03 11:29:50;;;;;;;43.47;33.20;;;;;;;;;;5142756;28;20189;-84
2023/03/03 11:32:21;;;;;;;45.63;34.95;;;;;;;;;;5142415;28;20597;-84
2023/03/03 11:34:56;;;;;;;44.60;34.97;;;;;;;;;;5142514;28;20201;-84
2023/03/03 11:37:28;;;;;;;44.37;34.50;;;;;;;;;;5142168;27;20200;-84
2023/03/03 11:39:56;;;;;;;40.00;33.13;;;;;;;;;;5142865;28;20468;-84
2023/03/03 11:42:26;;;;;;;42.95;32.92;;;;;;;;;;5141500;28;20480;-84
2023/03/03 11:44:55;;;;;;;41.45;32.30;;;;;;;;;;5142684;28;20209;-84
2023/03/03 11:47:24;;;;;;;44.40;33.73;;;;;;;;;;5142426;28;20250;-84
2023/03/03 11:49:53;;;;;;;45.33;34.47;;;;;;;;;;5141939;28;20450;-84
2023/03/03 11:52:29;;;;;;;43.90;34.97;;;;;;;;;;5146113;27;20557;-82
2023/03/03 11:54:58;;;;;;;40.20;32.70;;;;;;;;;;5156889;28;20419;-83
2023/03/03 11:57:30;;;;;;;42.72;33.30;;;;;;;;;;5156502;28;20194;-83
2023/03/03 12:00:00;;;;;;;44.78;33.72;;;;;;;;;;5142496;27;20184;-83
2023/03/03 12:02:45;;;;;;;44.03;33.43;;;;;;;;;;5141686;27;20234;-83
2023/03/03 12:05:16;;;;;;;38.13;32.80;;;;;;;;;;5141587;28;20494;-89
2023/03/03 12:07:47;;;;;;;45.40;33.53;;;;;;;;;;5135411;27;20470;-88
2023/03/03 12:10:20;;;;;;;38.40;32.57;;;;;;;;;;5136061;28;20181;-87
2023/03/03 12:12:53;;;;;;;44.03;36.95;;;;;;;;;;5135455;28;20434;-87
2023/03/03 12:15:26;;;;;;;44.33;32.65;;;;;;;;;;5135758;27;20254;-87
2023/03/03 12:18:19;;;;;;;42.73;32.93;;;;;;;;;;5135781;28;20201;-88
2023/03/03 12:20:50;;;;;;;27.15;24.65;;;;;;;;;;5135331;28;20393;-88
2023/03/03 12:23:27;;;;;;;39.33;31.92;;;;;;;;;;5134988;28;20198;-88
2023/03/03 12:25:59;;;;;;;38.38;30.42;;;;;;;;;;5135330;28;20224;-88
2023/03/03 12:28:28;;;;;;;39.83;30.80;;;;;;;;;;5135101;28;20227;-87
2023/03/03 12:31:03;;;;;;;39.22;32.38;;;;;;;;;;5135813;27;20247;-87
2023/03/03 12:33:38;;;;;;;45.45;32.65;;;;;;;;;;5138727;27;20243;-88
2023/03/03 12:39:13;;;;;;;41.10;33.15;;;;;;;;;;5140587;27;20169;-88
2023/03/03 12:41:45;;;;;;;40.93;33.70;;;;;;;;;;5140369;27;20251;-88
2023/03/03 12:44:17;;;;;;;47.85;33.65;;;;;;;;;;5140527;27;20878;-88
2023/03/03 12:46:46;;;;;;;40.92;32.83;;;;;;;;;;5141350;27;20225;-88
2023/03/03 12:49:13;;;;;;;44.20;33.83;;;;;;;;;;5140606;27;20196;-88
2023/03/03 12:52:00;;;;;;;38.85;32.75;;;;;;;;;;5139688;27;20413;-88
2023/03/03 12:54:43;;;;;;;40.88;31.75;;;;;;;;;;5140484;27;20239;-88
2023/03/03 12:57:14;;;;;;;39.63;31.70;;;;;;;;;;5139969;27;20218;-88
2023/03/03 12:59:46;;;;;;;43.23;34.10;;;;;;;;;;5140681;27;20402;-88
2023/03/03 13:02:26;;;;;;;45.40;33.70;;;;;;;;;;5140435;27;20986;-87
2023/03/03 13:04:57;;;;;;;46.47;36.10;;;;;;;;;;5141292;27;20177;-88
2023/03/03 13:07:27;;;;;;;42.33;33.70;;;;;;;;;;5139988;27;20457;-88
2023/03/03 13:10:03;;;;;;;45.28;33.17;;;;;;;;;;5140552;27;20431;-87
2023/03/03 13:12:37;;;;;;;36.85;30.70;;;;;;;;;;5140464;27;20189;-87
2023/03/03 13:15:10;;;;;;;44.53;32.75;;;;;;;;;;5140222;27;20596;-88
2023/03/03 13:17:39;;;;;;;41.17;32.60;;;;;;;;;;5140133;27;20706;-88
2023/03/03 13:20:12;;;;;;;44.80;34.10;;;;;;;;;;5139811;27;20205;-88
2023/03/03 13:22:42;;;;;;;35.30;29.83;;;;;;;;;;5138461;27;20182;-88
2023/03/03 13:25:18;;;;;;;43.60;33.30;;;;;;;;;;5139278;27;20966;-88
2023/03/03 13:27:47;;;;;;;52.42;35.38;;;;;;;;;;5140374;27;20471;-87
2023/03/03 13:30:16;;;;;;;47.20;35.57;;;;;;;;;;5139712;27;20197;-87
2023/03/03 13:32:47;;;;;;;47.65;35.00;;;;;;;;;;5139951;27;20435;-87
2023/03/03 13:35:18;;;;;;;39.35;32.75;;;;;;;;;;5139707;27;20699;-87
2023/03/03 13:37:47;;;;;;;38.83;31.70;;;;;;;;;;5141253;27;20231;-88
2023/03/03 13:40:18;;;;;;;42.10;33.50;;;;;;;;;;5140049;27;20223;-88
2023/03/03 13:42:47;;;;;;;40.37;30.93;;;;;;;;;;5139939;27;20418;-88
2023/03/03 13:45:18;;;;;;;33.83;30.00;;;;;;;;;;5142045;27;20445;-88
2023/03/03 13:47:49;;;;;;;41.42;34.03;;;;;;;;;;5141933;27;20441;-88
2023/03/03 13:50:20;;;;;;;42.07;34.80;;;;;;;;;;5142048;27;20235;-88
2023/03/03 13:52:50;;;;;;;44.20;35.43;;;;;;;;;;5141775;27;20463;-87
2023/03/03 13:55:21;;;;;;;37.10;33.10;;;;;;;;;;5142046;27;21035;-88
2023/03/03 13:57:56;;;;;;;40.83;32.90;;;;;;;;;;5141716;27;20588;-87
2023/03/03 14:00:27;;;;;;;42.60;33.33;;;;;;;;;;5141573;27;20193;-87
2023/03/03 14:02:59;;;;;;;34.47;30.50;;;;;;;;;;5141153;27;20238;-87
2023/03/03 14:05:31;;;;;;;35.00;29.77;;;;;;;;;;5140645;27;20962;-88
2023/03/03 14:08:00;;;;;;;40.85;32.90;;;;;;;;;;5141428;27;20393;-87
2023/03/03 14:10:30;;;;;;;41.47;33.60;;;;;;;;;;5142453;27;20653;-87
2023/03/03 14:13:01;;;;;;;37.20;30.98;;;;;;;;;;5143944;27;20740;-86
2023/03/03 14:15:29;;;;;;;36.58;30.23;;;;;;;;;;5142505;27;20217;-87
2023/03/03 14:18:05;;;;;;;38.00;33.93;;;;;;;;;;5141606;27;20205;-88
2023/03/03 14:20:32;;;;;;;36.00;31.40;;;;;;;;;;5142903;27;20445;-91
2023/03/03 14:23:01;;;;;;;35.27;31.47;;;;;;;;;;5138372;27;20455;-90
2023/03/03 14:25:50;;;;;;;35.33;30.80;;;;;;;;;;5138682;27;20942;-90
2023/03/03 14:28:22;;;;;;;33.93;30.30;;;;;;;;;;5138972;27;20455;-89
2023/03/03 14:30:49;;;;;;;35.78;31.92;;;;;;;;;;5139573;27;20482;-90
2023/03/03 14:33:19;;;;;;;31.87;28.57;;;;;;;;;;5139206;27;20258;-90